Sterling/Rock Falls, Illinois
Current Conditions -  °F | °C
As of 10:15 AM on Saturday 25 Oct 2014 (Local Time) from KSQI Reporting Station
Clear Clear  
Wind Chill: 18°   Ceiling: Unl
Heat Index: 18°   Visibility: 10mi
Dew Point: 12°   Wind: 8mph
Humidity: 68%   Direction: 330°NNW
Pressure: 30.01"   Gusts: NA
Location:  41.73°N, 89.68°W
Report Text: KSQI 251515Z AUTO 33007KT 10SM CLR 18/12 A3001 RMK AO1
Loading
Personal Weather Stations






























Interactive Weather Map New forecast layout! Learn more

10-Day Weather Forecast

Advertisements
Track Severe Weather on mobile